Singer Island, Florida
Current Conditions -  °F | °C
As of 2:53 PM on Thursday 23 Oct 2014 (Local Time) from KPBI Reporting Station
Overcast Overcast  
Wind Chill: 78°   Ceiling: 3600
Heat Index: 80°   Visibility: 10mi
Dew Point: 65°   Wind: 13mph
Humidity: 64%   Direction: 40°NE
Pressure: 29.9"   Gusts: 22mph
Location:  26.7789°N, 80.0745°W
Report Text: KPBI 231853Z 04011G19KT 10SM OVC036 26/18 A2990 RMK AO2 SLP123 T02560183
Loading
Personal Weather Stations






























Interactive Weather Map New forecast layout! Learn more

10-Day Weather Forecast

Advertisements
Track Severe Weather on mobile